createdAt,value
2023-02-22T00:01:42.951Z,5.72
2023-02-22T00:04:11.043Z,5.32
2023-02-22T00:06:37.565Z,6.00
2023-02-22T00:09:04.825Z,6.07
2023-02-22T00:11:31.784Z,5.55
2023-02-22T00:13:58.580Z,5.43
2023-02-22T00:16:26.617Z,6.32
2023-02-22T00:18:54.080Z,6.28
2023-02-22T00:21:21.487Z,6.55
2023-02-22T00:23:49.018Z,6.38
2023-02-22T00:26:18.548Z,6.18
2023-02-22T00:28:51.814Z,7.22
2023-02-22T00:31:19.790Z,7.05
2023-02-22T00:33:47.243Z,6.28
2023-02-22T00:36:14.612Z,7.20
2023-02-22T00:38:42.213Z,6.90
2023-02-22T00:41:09.795Z,6.75
2023-02-22T00:43:36.654Z,7.40
2023-02-22T00:46:03.920Z,7.15
2023-02-22T00:48:30.501Z,7.32
2023-02-22T00:50:57.140Z,6.82
2023-02-22T00:53:25.175Z,6.65
2023-02-22T00:55:52.804Z,6.47
2023-02-22T00:58:19.758Z,6.57
2023-02-22T01:00:46.948Z,7.13
2023-02-22T01:03:15.923Z,7.72
2023-02-22T01:05:43.386Z,7.25
2023-02-22T01:08:12.350Z,7.20
2023-02-22T01:10:40.044Z,7.18
2023-02-22T01:13:12.527Z,7.30
2023-02-22T01:15:42.401Z,6.82
2023-02-22T01:18:09.612Z,6.57
2023-02-22T01:20:36.395Z,7.25
2023-02-22T01:23:06.572Z,6.70
2023-02-22T01:25:34.781Z,7.03
2023-02-22T01:28:02.666Z,6.93
2023-02-22T01:30:32.923Z,7.03
2023-02-22T01:33:01.092Z,7.25
2023-02-22T01:35:31.763Z,6.63
2023-02-22T01:37:58.846Z,6.00
2023-02-22T01:40:30.715Z,5.88
2023-02-22T01:43:00.183Z,5.80
2023-02-22T01:45:35.437Z,6.43
2023-02-22T01:48:09.045Z,6.95
2023-02-22T01:50:53.938Z,5.97
2023-02-22T01:53:23.540Z,6.45
2023-02-22T01:55:52.450Z,6.07
2023-02-22T01:58:21.199Z,6.10
2023-02-22T02:00:47.848Z,6.43
2023-02-22T02:03:21.677Z,5.90
2023-02-22T02:05:52.892Z,6.05
2023-02-22T02:08:31.922Z,6.50
2023-02-22T02:10:59.659Z,6.07
2023-02-22T02:13:28.223Z,5.93
2023-02-22T02:15:56.326Z,5.95
2023-02-22T02:18:26.427Z,5.55
2023-02-22T02:21:21.031Z,6.20
2023-02-22T02:24:11.688Z,6.18
2023-02-22T02:26:59.843Z,5.75
2023-02-22T02:29:42.189Z,5.75
2023-02-22T02:32:35.083Z,6.03
2023-02-22T02:35:16.705Z,5.90
2023-02-22T02:38:01.704Z,5.43
2023-02-22T02:40:44.560Z,5.47
2023-02-22T02:43:35.703Z,5.47
2023-02-22T02:46:21.322Z,5.60
2023-02-22T02:48:57.108Z,5.50
2023-02-22T02:53:55.928Z,5.28
2023-02-22T02:56:23.511Z,5.10
2023-02-22T02:58:53.910Z,5.07
2023-02-22T03:01:35.949Z,5.63
2023-02-22T03:04:25.352Z,5.38
2023-02-22T03:07:15.508Z,5.05
2023-02-22T03:10:00.600Z,4.57
2023-02-22T03:12:38.888Z,5.10
2023-02-22T03:15:14.500Z,4.88
2023-02-22T03:18:11.777Z,4.65
2023-02-22T03:20:53.084Z,4.93
2023-02-22T03:23:25.451Z,4.10
2023-02-22T03:26:05.776Z,5.05
2023-02-22T03:28:33.498Z,4.32
2023-02-22T03:31:14.421Z,4.93
2023-02-22T03:33:45.576Z,5.03
2023-02-22T03:36:27.173Z,5.20
2023-02-22T03:38:57.089Z,4.60
2023-02-22T03:41:26.980Z,4.68
2023-02-22T03:44:10.516Z,4.45
2023-02-22T03:46:41.164Z,4.78
2023-02-22T03:49:17.674Z,4.45
2023-02-22T03:51:44.396Z,4.40
2023-02-22T03:54:16.519Z,4.40
2023-02-22T03:56:50.107Z,4.22
2023-02-22T03:59:17.136Z,4.82
2023-02-22T04:01:43.976Z,4.20
2023-02-22T04:04:10.610Z,4.00
2023-02-22T04:06:37.148Z,4.55
2023-02-22T04:09:03.756Z,4.60
2023-02-22T04:11:30.300Z,4.05
2023-02-22T04:13:57.190Z,4.68
2023-02-22T04:16:23.743Z,4.25
2023-02-22T04:18:50.286Z,4.70
2023-02-22T04:21:17.099Z,4.95
2023-02-22T04:23:43.804Z,4.60
2023-02-22T04:26:10.377Z,4.63
2023-02-22T04:28:37.056Z,4.07
2023-02-22T04:31:03.760Z,4.35
2023-02-22T04:33:30.304Z,4.28
2023-02-22T04:35:57.885Z,4.53
2023-02-22T04:38:26.080Z,4.60
2023-02-22T04:40:53.790Z,4.32
2023-02-22T04:43:20.803Z,4.20
2023-02-22T04:45:47.417Z,4.63
2023-02-22T04:48:14.093Z,4.00
2023-02-22T04:50:40.677Z,4.15
2023-02-22T04:53:07.239Z,4.70
2023-02-22T04:55:34.259Z,4.43
2023-02-22T04:58:00.844Z,4.40
2023-02-22T05:00:28.017Z,4.10
2023-02-22T05:02:54.595Z,4.50
2023-02-22T05:05:21.804Z,4.55
2023-02-22T05:07:49.463Z,4.22
2023-02-22T05:10:16.323Z,4.15
2023-02-22T05:12:42.857Z,4.32
2023-02-22T05:15:09.909Z,4.15
2023-02-22T05:17:37.070Z,4.28
2023-02-22T05:20:04.936Z,3.50
2023-02-22T05:22:31.608Z,3.97
2023-02-22T05:24:58.567Z,3.55
2023-02-22T05:27:25.176Z,3.30
2023-02-22T05:29:51.782Z,3.80
2023-02-22T05:32:18.479Z,3.70
2023-02-22T05:34:45.675Z,3.45
2023-02-22T05:37:12.368Z,3.80
2023-02-22T05:39:39.299Z,3.88
2023-02-22T05:42:05.880Z,4.18
2023-02-22T05:44:32.425Z,3.50
2023-02-22T05:46:58.960Z,3.92
2023-02-22T05:49:25.600Z,4.32
2023-02-22T05:51:52.137Z,4.00
2023-02-22T05:54:18.744Z,4.30
2023-02-22T05:56:45.345Z,3.55
2023-02-22T05:59:12.061Z,3.70
2023-02-22T06:01:38.650Z,4.00
2023-02-22T06:04:05.289Z,3.58
2023-02-22T06:06:31.842Z,3.75
2023-02-22T06:08:58.369Z,3.80
2023-02-22T06:11:24.927Z,4.20
2023-02-22T06:13:52.716Z,3.65
2023-02-22T06:16:21.486Z,3.70
2023-02-22T06:18:49.130Z,4.15
2023-02-22T06:21:15.959Z,4.10
2023-02-22T06:23:42.795Z,3.53
2023-02-22T06:26:09.400Z,3.50
2023-02-22T06:28:36.067Z,4.00
2023-02-22T06:31:02.751Z,3.90
2023-02-22T06:33:29.328Z,3.75
2023-02-22T06:35:55.906Z,3.45
2023-02-22T06:38:24.841Z,3.65
2023-02-22T06:40:51.882Z,3.35
2023-02-22T06:43:18.642Z,3.88
2023-02-22T06:45:45.303Z,3.53
2023-02-22T06:48:11.909Z,3.88
2023-02-22T06:50:38.494Z,3.88
2023-02-22T06:53:05.256Z,3.95
2023-02-22T06:55:34.296Z,4.20
2023-02-22T06:58:01.513Z,6.03
2023-02-22T07:00:29.889Z,5.90
2023-02-22T07:02:57.660Z,6.03
2023-02-22T07:05:26.217Z,5.80
2023-02-22T07:07:55.621Z,6.10
2023-02-22T07:10:25.740Z,6.13
2023-02-22T07:12:52.585Z,6.15
2023-02-22T07:15:21.811Z,5.75
2023-02-22T07:17:48.572Z,5.50
2023-02-22T07:20:15.658Z,5.53
2023-02-22T07:22:42.220Z,5.20
2023-02-22T07:25:11.301Z,5.63
2023-02-22T07:27:39.764Z,5.47
2023-02-22T07:30:08.561Z,5.40
2023-02-22T07:32:35.275Z,5.22
2023-02-22T07:35:02.984Z,5.85
2023-02-22T07:37:30.314Z,6.20
2023-02-22T07:39:56.874Z,5.07
2023-02-22T07:42:23.836Z,5.25
2023-02-22T07:44:50.406Z,4.60
2023-02-22T07:47:16.969Z,4.43
2023-02-22T07:49:43.503Z,4.30
2023-02-22T07:52:10.030Z,4.40
2023-02-22T07:54:36.572Z,4.47
2023-02-22T07:57:03.461Z,4.22
2023-02-22T07:59:30.015Z,4.15
2023-02-22T08:01:56.547Z,4.60
2023-02-22T08:04:23.056Z,4.53
2023-02-22T08:06:50.231Z,4.18
2023-02-22T08:09:16.775Z,4.45
2023-02-22T08:11:43.369Z,3.90
2023-02-22T08:14:09.956Z,3.63
2023-02-22T08:16:36.516Z,3.85
2023-02-22T08:19:03.104Z,3.65
2023-02-22T08:21:30.425Z,4.05
2023-02-22T08:23:56.958Z,3.45
2023-02-22T08:26:25.375Z,3.40
2023-02-22T08:28:51.949Z,3.50
2023-02-22T08:31:18.976Z,3.33
2023-02-22T08:33:49.034Z,4.07
2023-02-22T08:36:16.082Z,3.40
2023-02-22T08:38:42.640Z,3.75
2023-02-22T08:41:09.421Z,3.67
2023-02-22T08:43:35.996Z,3.65
2023-02-22T08:46:02.571Z,3.83
2023-02-22T08:48:29.270Z,3.55
2023-02-22T08:50:56.273Z,3.83
2023-02-22T08:53:23.163Z,3.55
2023-02-22T08:55:49.920Z,3.95
2023-02-22T08:58:16.651Z,3.38
2023-02-22T09:00:44.832Z,3.33
2023-02-22T09:03:14.197Z,3.50
2023-02-22T09:05:42.569Z,4.05
2023-02-22T09:08:09.273Z,3.85
2023-02-22T09:10:36.382Z,3.58
2023-02-22T09:13:04.179Z,3.55
2023-02-22T09:15:31.977Z,3.53
2023-02-22T09:17:58.894Z,3.70
2023-02-22T09:20:26.082Z,3.60
2023-02-22T09:22:53.510Z,3.90
2023-02-22T09:25:21.281Z,4.00
2023-02-22T09:27:52.794Z,4.20
2023-02-22T09:30:35.065Z,3.70
2023-02-22T09:33:10.119Z,3.58
2023-02-22T09:35:42.153Z,3.72
2023-02-22T09:38:10.342Z,4.25
2023-02-22T09:40:45.176Z,3.63
2023-02-22T09:43:24.731Z,3.50
2023-02-22T09:46:19.264Z,4.10
2023-02-22T09:48:51.949Z,3.33
2023-02-22T09:51:20.653Z,3.63
2023-02-22T09:53:52.299Z,3.58
2023-02-22T09:56:20.893Z,3.63
2023-02-22T09:58:52.284Z,3.80
2023-02-22T10:01:32.875Z,3.75
2023-02-22T10:04:09.802Z,3.15
2023-02-22T10:06:38.863Z,3.53
2023-02-22T10:09:08.150Z,3.90
2023-02-22T10:11:40.332Z,3.47
2023-02-22T10:14:22.087Z,3.92
2023-02-22T10:17:03.553Z,3.50
2023-02-22T10:19:39.458Z,3.63
2023-02-22T10:25:09.547Z,3.30
2023-02-22T10:27:40.081Z,3.25
2023-02-22T10:30:25.230Z,3.03
2023-02-22T10:33:22.860Z,3.27
2023-02-22T10:35:51.647Z,3.35
2023-02-22T10:38:20.275Z,3.28
2023-02-22T10:40:54.988Z,3.30
2023-02-22T10:43:23.461Z,3.50
2023-02-22T10:45:56.034Z,3.22
2023-02-22T10:48:25.868Z,3.45
2023-02-22T10:50:57.379Z,3.00
2023-02-22T10:53:26.315Z,3.03
2023-02-22T10:56:22.638Z,3.10
2023-02-22T10:58:50.490Z,3.13
2023-02-22T11:01:32.155Z,2.92
2023-02-22T11:04:07.213Z,3.00
2023-02-22T11:06:35.871Z,3.00
2023-02-22T11:09:11.769Z,3.28
2023-02-22T11:14:10.773Z,3.00
2023-02-22T11:16:51.399Z,2.97
2023-02-22T11:19:24.106Z,3.03
2023-02-22T11:21:54.236Z,2.90
2023-02-22T11:24:24.310Z,2.92
2023-02-22T11:26:56.390Z,3.22
2023-02-22T11:29:28.053Z,2.83
2023-02-22T11:31:56.087Z,2.80
2023-02-22T11:34:36.670Z,3.10
2023-02-22T11:37:22.424Z,3.03
2023-02-22T11:40:03.849Z,3.10
2023-02-22T11:42:30.415Z,2.95
2023-02-22T11:45:23.652Z,3.25
2023-02-22T11:47:59.992Z,2.83
2023-02-22T11:50:28.503Z,2.95
2023-02-22T11:53:03.035Z,2.80
2023-02-22T11:55:43.303Z,3.10
2023-02-22T11:58:32.356Z,2.40
2023-02-22T12:01:08.438Z,3.10
2023-02-22T12:03:40.744Z,2.80
2023-02-22T12:06:40.430Z,2.83
2023-02-22T12:09:25.162Z,2.97
2023-02-22T12:12:23.486Z,2.90
2023-02-22T12:15:13.949Z,2.60
2023-02-22T12:17:59.302Z,2.50
2023-02-22T12:20:39.766Z,3.28
2023-02-22T12:23:15.315Z,2.35
2023-02-22T12:25:53.624Z,2.83
2023-02-22T12:28:25.955Z,2.40
2023-02-22T12:31:04.812Z,2.97
2023-02-22T12:33:56.694Z,2.55
2023-02-22T12:36:33.088Z,2.70
2023-02-22T12:39:07.583Z,2.88
2023-02-22T12:41:48.404Z,2.83
2023-02-22T12:44:29.827Z,2.90
2023-02-22T12:46:58.444Z,2.63
2023-02-22T12:49:41.513Z,2.90
2023-02-22T12:52:28.312Z,2.55
2023-02-22T12:55:11.176Z,2.40
2023-02-22T12:57:48.915Z,2.70
2023-02-22T13:00:28.728Z,2.50
2023-02-22T13:03:17.766Z,2.53
2023-02-22T13:05:49.507Z,2.55
2023-02-22T13:08:24.944Z,2.40
2023-02-22T13:11:23.639Z,2.42
2023-02-22T13:14:16.674Z,2.70
2023-02-22T13:16:53.135Z,2.20
2023-02-22T13:19:52.477Z,2.75
2023-02-22T13:22:36.732Z,2.55
2023-02-22T13:25:28.545Z,2.58
2023-02-22T13:28:13.210Z,2.50
2023-02-22T13:30:47.169Z,2.42
2023-02-22T13:33:19.617Z,2.65
2023-02-22T13:36:27.551Z,2.47
2023-02-22T13:39:19.330Z,2.50
2023-02-22T13:42:01.608Z,2.67
2023-02-22T13:44:47.016Z,2.38
2023-02-22T13:47:13.488Z,2.50
2023-02-22T13:49:49.163Z,2.60
2023-02-22T13:52:20.520Z,2.70
2023-02-22T13:54:54.681Z,2.72
2023-02-22T13:57:51.648Z,2.50
2023-02-22T14:00:22.896Z,2.38
2023-02-22T14:03:08.167Z,2.50
2023-02-22T14:05:46.912Z,2.45
2023-02-22T14:08:19.782Z,2.35
2023-02-22T14:11:05.897Z,2.50
2023-02-22T14:13:53.704Z,2.63
2023-02-22T14:16:24.275Z,2.53
2023-02-22T14:19:06.619Z,2.40
2023-02-22T14:21:37.728Z,2.35
2023-02-22T14:24:12.682Z,2.45
2023-02-22T14:26:40.618Z,2.30
2023-02-22T14:29:07.774Z,2.50
2023-02-22T14:31:51.299Z,2.58
2023-02-22T14:34:41.354Z,2.65
2023-02-22T14:37:13.979Z,2.65
2023-02-22T14:39:45.942Z,2.20
2023-02-22T14:42:24.298Z,2.30
2023-02-22T14:45:17.091Z,2.33
2023-02-22T14:48:01.297Z,2.50
2023-02-22T14:50:45.834Z,2.47
2023-02-22T14:53:18.133Z,2.47
2023-02-22T14:55:57.142Z,2.55
2023-02-22T14:58:29.725Z,2.60
2023-02-22T15:00:59.067Z,2.63
2023-02-22T15:03:29.332Z,2.22
2023-02-22T15:05:59.670Z,2.42
2023-02-22T15:08:28.573Z,2.80
2023-02-22T15:10:55.172Z,2.80
2023-02-22T15:13:28.005Z,2.70
2023-02-22T15:16:00.507Z,2.80
2023-02-22T15:18:39.761Z,2.67
2023-02-22T15:21:13.393Z,2.38
2023-02-22T15:23:44.202Z,2.60
2023-02-22T15:26:20.424Z,2.40
2023-02-22T15:28:48.013Z,2.58
2023-02-22T15:31:24.953Z,2.40
2023-02-22T15:33:53.252Z,2.75
2023-02-22T15:36:20.483Z,2.55
2023-02-22T15:38:52.487Z,2.70
2023-02-22T15:41:37.264Z,2.60
2023-02-22T15:44:14.150Z,2.65
2023-02-22T15:46:49.351Z,2.60
2023-02-22T15:49:15.855Z,2.50
2023-02-22T15:51:46.489Z,2.85
2023-02-22T15:54:26.449Z,2.60
2023-02-22T15:56:57.300Z,2.70
2023-02-22T15:59:30.502Z,2.80
2023-02-22T16:01:59.273Z,3.20
2023-02-22T16:04:31.265Z,2.80
2023-02-22T16:07:16.928Z,3.50
2023-02-22T16:09:51.314Z,3.33
2023-02-22T16:12:20.855Z,2.80
2023-02-22T16:14:48.950Z,3.10
2023-02-22T16:17:31.030Z,3.20
2023-02-22T16:20:03.491Z,3.08
2023-02-22T16:22:35.129Z,3.35
2023-02-22T16:25:21.552Z,3.67
2023-02-22T16:27:51.150Z,3.20
2023-02-22T16:30:23.944Z,2.80
2023-02-22T16:32:53.472Z,3.20
2023-02-22T16:35:20.037Z,3.00
2023-02-22T16:37:50.400Z,3.50
2023-02-22T16:40:27.389Z,3.05
2023-02-22T16:42:54.024Z,3.30
2023-02-22T16:45:21.952Z,3.35
2023-02-22T16:47:53.740Z,2.83
2023-02-22T16:50:22.039Z,3.50
2023-02-22T16:52:48.630Z,3.53
2023-02-22T16:55:17.814Z,3.15
2023-02-22T16:57:44.826Z,3.25
2023-02-22T17:00:31.101Z,4.05
2023-02-22T17:05:36.464Z,3.45
2023-02-22T17:08:06.509Z,3.78
2023-02-22T17:10:34.163Z,3.22
2023-02-22T17:13:12.826Z,3.83
2023-02-22T17:15:46.838Z,3.45
2023-02-22T17:18:16.442Z,3.90
2023-02-22T17:20:44.967Z,3.60
2023-02-22T17:23:12.439Z,3.03
2023-02-22T17:25:44.675Z,3.40
2023-02-22T17:28:11.488Z,3.30
2023-02-22T17:30:38.150Z,3.67
2023-02-22T17:33:07.692Z,3.75
2023-02-22T17:35:37.223Z,3.67
2023-02-22T17:38:06.254Z,3.55
2023-02-22T17:40:34.395Z,3.55
2023-02-22T17:43:01.980Z,3.38
2023-02-22T17:45:29.667Z,3.15
2023-02-22T17:47:59.002Z,3.20
2023-02-22T17:50:27.047Z,3.40
2023-02-22T17:52:53.978Z,3.17
2023-02-22T17:55:21.776Z,3.05
2023-02-22T17:57:53.182Z,3.38
2023-02-22T18:00:32.972Z,3.45
2023-02-22T18:03:05.926Z,3.30
2023-02-22T18:05:34.112Z,3.03
2023-02-22T18:08:00.682Z,3.28
2023-02-22T18:10:27.467Z,3.33
2023-02-22T18:12:55.094Z,3.42
2023-02-22T18:15:21.674Z,3.42
2023-02-22T18:17:48.690Z,3.30
2023-02-22T18:20:38.031Z,3.72
2023-02-22T18:23:08.879Z,3.40
2023-02-22T18:25:36.926Z,3.47
2023-02-22T18:28:06.244Z,3.25
2023-02-22T18:30:37.947Z,3.90
2023-02-22T18:33:04.697Z,3.50
2023-02-22T18:35:31.575Z,3.45
2023-02-22T18:37:58.226Z,3.42
2023-02-22T18:40:24.747Z,3.47
2023-02-22T18:42:52.462Z,3.38
2023-02-22T18:45:19.343Z,3.42
2023-02-22T18:47:45.902Z,3.33
2023-02-22T18:50:13.697Z,3.53
2023-02-22T18:52:46.407Z,3.10
2023-02-22T18:55:14.446Z,3.55
2023-02-22T18:57:42.142Z,3.35
2023-02-22T19:00:10.755Z,3.63
2023-02-22T19:02:37.729Z,3.42
2023-02-22T19:05:06.098Z,3.05
2023-02-22T19:07:32.920Z,3.08
2023-02-22T19:10:00.690Z,3.47
2023-02-22T19:12:27.315Z,3.05
2023-02-22T19:14:53.861Z,2.95
2023-02-22T19:17:21.513Z,3.53
2023-02-22T19:19:48.637Z,3.40
2023-02-22T19:22:15.633Z,3.33
2023-02-22T19:24:43.664Z,3.63
2023-02-22T19:27:11.470Z,3.05
2023-02-22T19:29:39.236Z,3.88
2023-02-22T19:32:07.163Z,3.63
2023-02-22T19:34:33.994Z,3.55
2023-02-22T19:37:01.061Z,3.95
2023-02-22T19:39:32.342Z,3.55
2023-02-22T19:42:00.427Z,3.50
2023-02-22T19:44:27.897Z,3.78
2023-02-22T19:46:57.542Z,3.17
2023-02-22T19:51:52.524Z,3.63
2023-02-22T19:54:23.978Z,3.17
2023-02-22T19:56:51.503Z,3.40
2023-02-22T19:59:23.029Z,3.65
2023-02-22T20:01:53.596Z,3.58
2023-02-22T20:04:23.384Z,4.03
2023-02-22T20:06:54.654Z,3.75
2023-02-22T20:09:43.175Z,4.03
2023-02-22T20:12:09.922Z,4.07
2023-02-22T20:14:37.302Z,4.53
2023-02-22T20:17:04.986Z,4.25
2023-02-22T20:19:31.975Z,4.13
2023-02-22T20:22:00.303Z,4.40
2023-02-22T20:24:27.730Z,4.20
2023-02-22T20:26:56.541Z,3.72
2023-02-22T20:29:29.804Z,4.18
2023-02-22T20:31:58.067Z,4.07
2023-02-22T20:34:26.486Z,4.00
2023-02-22T20:36:53.819Z,4.22
2023-02-22T20:39:20.378Z,4.20
2023-02-22T20:41:47.050Z,4.43
2023-02-22T20:44:15.799Z,4.55
2023-02-22T20:46:43.370Z,4.10
2023-02-22T20:49:14.854Z,4.20
2023-02-22T20:51:41.927Z,4.72
2023-02-22T20:54:12.251Z,4.68
2023-02-22T20:56:41.876Z,4.70
2023-02-22T20:59:11.859Z,4.55
2023-02-22T21:01:38.771Z,4.47
2023-02-22T21:04:07.678Z,5.00
2023-02-22T21:06:37.280Z,4.53
2023-02-22T21:09:08.854Z,4.45
2023-02-22T21:11:35.905Z,4.45
2023-02-22T21:14:03.482Z,4.43
2023-02-22T21:16:35.568Z,4.82
2023-02-22T21:19:06.198Z,4.45
2023-02-22T21:21:33.250Z,4.38
2023-02-22T21:24:03.615Z,4.40
2023-02-22T21:26:33.093Z,4.57
2023-02-22T21:29:02.249Z,4.25
2023-02-22T21:31:29.250Z,4.50
2023-02-22T21:33:57.729Z,4.95
2023-02-22T21:36:25.775Z,4.25
2023-02-22T21:38:57.646Z,4.10
2023-02-22T21:41:31.123Z,4.80
2023-02-22T21:43:59.856Z,4.38
2023-02-22T21:46:28.996Z,4.05
2023-02-22T21:48:58.625Z,4.38
2023-02-22T21:51:31.583Z,4.55
2023-02-22T21:54:04.051Z,4.70
2023-02-22T21:56:34.326Z,4.68
2023-02-22T21:59:04.989Z,4.40
2023-02-22T22:01:47.141Z,4.65
2023-02-22T22:04:19.023Z,4.55
2023-02-22T22:06:52.982Z,3.97
2023-02-22T22:09:21.932Z,4.38
2023-02-22T22:11:50.955Z,4.60
2023-02-22T22:14:23.411Z,4.68
2023-02-22T22:16:53.155Z,4.38
2023-02-22T22:19:20.133Z,5.18
2023-02-22T22:21:46.984Z,4.72
2023-02-22T22:24:13.603Z,4.72
2023-02-22T22:26:40.375Z,4.68
2023-02-22T22:29:10.427Z,4.72
2023-02-22T22:31:37.389Z,4.40
2023-02-22T22:34:05.023Z,4.65
2023-02-22T22:36:31.667Z,4.38
2023-02-22T22:38:58.296Z,4.50
2023-02-22T22:41:28.211Z,4.40
2023-02-22T22:43:55.774Z,5.07
2023-02-22T22:46:22.570Z,4.65
2023-02-22T22:48:49.337Z,5.25
2023-02-22T22:51:20.059Z,6.03
2023-02-22T22:53:48.940Z,6.15
2023-02-22T22:56:26.325Z,6.25
2023-02-22T22:58:58.713Z,7.07
2023-02-22T23:01:28.321Z,7.28
2023-02-22T23:03:59.782Z,6.97
2023-02-22T23:06:30.848Z,7.45
2023-02-22T23:09:13.046Z,7.03
2023-02-22T23:11:44.580Z,7.68
2023-02-22T23:14:22.656Z,8.43
2023-02-22T23:16:50.994Z,8.57
2023-02-22T23:19:19.281Z,8.43
2023-02-22T23:21:47.613Z,7.43
2023-02-22T23:24:15.799Z,7.85
2023-02-22T23:26:43.039Z,7.95
2023-02-22T23:29:09.888Z,8.55
2023-02-22T23:31:39.816Z,8.32
2023-02-22T23:34:11.191Z,8.75
2023-02-22T23:36:44.312Z,8.35
2023-02-22T23:39:11.887Z,8.38
2023-02-22T23:41:38.604Z,8.13
2023-02-22T23:44:11.222Z,7.75
2023-02-22T23:46:41.161Z,7.80
2023-02-22T23:49:09.867Z,8.50
2023-02-22T23:51:44.564Z,8.73
2023-02-22T23:54:13.949Z,8.05
2023-02-22T23:56:47.203Z,8.30
2023-02-22T23:59:14.441Z,8.10
